createdAt,value
2023-05-02T00:00:28.040Z,3.47
2023-05-02T00:03:30.642Z,3.37
2023-05-02T00:06:35.429Z,3.47
2023-05-02T00:09:38.054Z,4.00
2023-05-02T00:12:40.520Z,3.60
2023-05-02T00:15:43.222Z,3.60
2023-05-02T00:18:45.719Z,4.03
2023-05-02T00:21:49.999Z,3.80
2023-05-02T00:24:57.313Z,3.90
2023-05-02T00:27:59.879Z,3.83
2023-05-02T00:31:02.607Z,3.60
2023-05-02T00:34:05.190Z,3.90
2023-05-02T00:37:09.061Z,3.33
2023-05-02T00:40:12.651Z,3.77
2023-05-02T00:46:17.983Z,3.90
2023-05-02T00:49:20.911Z,3.75
2023-05-02T00:52:24.753Z,3.78
2023-05-02T00:55:27.284Z,3.73
2023-05-02T00:58:30.704Z,3.60
2023-05-02T01:01:38.198Z,3.83
2023-05-02T01:04:45.729Z,3.57
2023-05-02T01:07:59.722Z,4.00
2023-05-02T01:11:07.828Z,3.70
2023-05-02T01:14:12.547Z,3.50
2023-05-02T01:17:16.635Z,3.90
2023-05-02T01:20:21.605Z,3.57
2023-05-02T01:23:31.454Z,3.83
2023-05-02T01:26:37.536Z,3.67
2023-05-02T01:29:42.327Z,4.17
2023-05-02T01:32:47.270Z,3.53
2023-05-02T01:35:51.736Z,3.60
2023-05-02T01:38:56.326Z,3.80
2023-05-02T01:41:59.153Z,3.63
2023-05-02T01:45:04.269Z,3.95
2023-05-02T01:48:07.851Z,3.80
2023-05-02T01:54:14.335Z,3.80
2023-05-02T02:00:21.460Z,4.23
2023-05-02T02:03:24.627Z,4.43
2023-05-02T02:06:27.788Z,4.35
2023-05-02T02:09:30.602Z,4.22
2023-05-02T02:12:37.038Z,4.13
2023-05-02T02:15:41.209Z,4.63
2023-05-02T02:18:45.802Z,4.20
2023-05-02T02:21:49.225Z,4.27
2023-05-02T02:24:54.526Z,4.53
2023-05-02T02:27:57.668Z,4.30
2023-05-02T02:31:02.406Z,4.30
2023-05-02T02:34:04.956Z,5.00
2023-05-02T02:37:11.865Z,5.40
2023-05-02T02:40:25.034Z,4.60
2023-05-02T02:43:34.058Z,5.85
2023-05-02T02:46:50.066Z,4.83
2023-05-02T02:49:59.785Z,4.70
2023-05-02T02:53:04.281Z,4.93
2023-05-02T02:56:08.011Z,4.80
2023-05-02T02:59:15.280Z,5.40
2023-05-02T03:02:19.994Z,4.77
2023-05-02T03:05:23.646Z,5.10
2023-05-02T03:11:29.587Z,5.03
2023-05-02T03:17:36.024Z,5.03
2023-05-02T03:20:38.906Z,4.77
2023-05-02T03:23:41.411Z,3.65
2023-05-02T03:26:43.905Z,4.20
2023-05-02T03:29:46.413Z,4.30
2023-05-02T03:32:50.526Z,4.70
2023-05-02T03:35:53.143Z,4.67
2023-05-02T03:38:55.954Z,4.13
2023-05-02T03:41:59.508Z,5.07
2023-05-02T03:45:02.068Z,5.35
2023-05-02T03:48:06.318Z,4.27
2023-05-02T03:51:09.919Z,4.33
2023-05-02T03:57:15.062Z,4.77
2023-05-02T04:00:17.829Z,5.00
2023-05-02T04:03:22.573Z,5.25
2023-05-02T04:06:25.275Z,5.13
2023-05-02T04:09:27.781Z,5.03
2023-05-02T04:12:30.760Z,4.30
2023-05-02T04:15:33.414Z,5.07
2023-05-02T04:18:37.306Z,4.80
2023-05-02T04:21:39.823Z,4.87
2023-05-02T04:24:42.470Z,4.37
2023-05-02T04:27:45.347Z,4.90
2023-05-02T04:30:48.079Z,4.57
2023-05-02T04:33:52.063Z,5.85
2023-05-02T04:36:54.636Z,4.80
2023-05-02T04:39:57.331Z,5.50
2023-05-02T04:42:59.917Z,6.18
2023-05-02T04:46:02.474Z,6.60
2023-05-02T04:49:06.473Z,6.50
2023-05-02T04:52:08.999Z,6.43
2023-05-02T04:55:11.522Z,6.63
2023-05-02T04:58:14.099Z,6.90
2023-05-02T05:01:17.666Z,6.73
2023-05-02T05:10:28.310Z,6.38
2023-05-02T05:13:30.817Z,5.80
2023-05-02T05:16:33.443Z,5.23
2023-05-02T05:19:37.295Z,5.10
2023-05-02T05:22:41.419Z,5.40
2023-05-02T05:25:45.750Z,4.97
2023-05-02T05:28:48.517Z,5.13
2023-05-02T05:31:51.115Z,4.90
2023-05-02T05:34:55.007Z,4.90
2023-05-02T05:37:57.611Z,5.47
2023-05-02T05:41:00.143Z,5.13
2023-05-02T05:44:02.653Z,5.53
2023-05-02T05:47:05.307Z,4.70
2023-05-02T05:50:10.885Z,5.90
2023-05-02T05:53:13.850Z,5.23
2023-05-02T05:56:16.413Z,6.13
2023-05-02T05:59:19.031Z,5.83
2023-05-02T06:02:21.666Z,5.50
2023-05-02T06:05:25.569Z,5.72
2023-05-02T06:08:28.363Z,5.87
2023-05-02T06:11:31.092Z,5.38
2023-05-02T06:14:33.630Z,5.47
2023-05-02T06:17:36.174Z,6.50
2023-05-02T06:20:40.071Z,5.67
2023-05-02T06:23:42.727Z,6.53
2023-05-02T06:26:46.200Z,6.30
2023-05-02T06:29:48.674Z,6.32
2023-05-02T06:32:51.525Z,6.50
2023-05-02T06:35:55.607Z,6.70
2023-05-02T06:38:58.115Z,6.67
2023-05-02T06:42:01.427Z,7.50
2023-05-02T06:45:04.305Z,6.80
2023-05-02T06:48:07.480Z,7.47
2023-05-02T06:51:11.551Z,7.43
2023-05-02T06:54:14.842Z,9.10
2023-05-02T06:57:17.488Z,8.75
2023-05-02T07:00:20.845Z,8.70
2023-05-02T07:03:23.614Z,8.30
2023-05-02T07:06:27.883Z,8.25
2023-05-02T07:09:30.846Z,9.23
2023-05-02T07:12:33.656Z,9.02
2023-05-02T07:15:36.165Z,9.82
2023-05-02T07:18:38.731Z,9.87
2023-05-02T07:21:42.773Z,9.70
2023-05-02T07:24:45.562Z,10.07
2023-05-02T07:27:48.145Z,10.77
2023-05-02T07:30:50.622Z,10.27
2023-05-02T07:33:53.174Z,10.10
2023-05-02T07:36:57.374Z,10.70
2023-05-02T07:40:00.349Z,10.83
2023-05-02T07:43:03.499Z,10.02
2023-05-02T07:46:06.808Z,12.07
2023-05-02T07:49:09.428Z,11.82
2023-05-02T07:52:13.323Z,10.48
2023-05-02T07:55:16.161Z,11.57
2023-05-02T07:58:18.679Z,11.40
2023-05-02T08:01:21.300Z,11.40
2023-05-02T08:04:24.014Z,11.60
2023-05-02T08:07:28.092Z,12.48
2023-05-02T08:10:30.861Z,12.70
2023-05-02T08:13:33.372Z,12.25
2023-05-02T08:16:36.207Z,12.20
2023-05-02T08:19:38.910Z,12.32
2023-05-02T08:22:42.780Z,14.05
2023-05-02T08:25:45.415Z,14.30
2023-05-02T08:28:47.958Z,12.90
2023-05-02T08:31:50.589Z,14.70
2023-05-02T08:34:56.168Z,13.55
2023-05-02T08:37:59.992Z,12.83
2023-05-02T08:41:02.828Z,13.57
2023-05-02T08:44:07.523Z,14.38
2023-05-02T08:47:12.212Z,13.07
2023-05-02T08:50:16.965Z,13.53
2023-05-02T08:53:21.198Z,12.93
2023-05-02T08:56:25.199Z,13.50
2023-05-02T08:59:27.900Z,14.07
2023-05-02T09:02:43.365Z,13.65
2023-05-02T09:05:48.177Z,13.67
2023-05-02T09:08:53.331Z,13.73
2023-05-02T09:11:55.950Z,12.80
2023-05-02T09:15:19.207Z,12.70
2023-05-02T09:18:23.683Z,12.57
2023-05-02T09:21:27.465Z,12.98
2023-05-02T09:24:31.353Z,12.70
2023-05-02T09:27:55.832Z,12.23
2023-05-02T09:31:08.183Z,12.53
2023-05-02T09:34:11.782Z,12.47
2023-05-02T09:37:37.304Z,11.80
2023-05-02T09:40:54.511Z,12.10
2023-05-02T09:43:58.084Z,12.37
2023-05-02T09:47:02.171Z,11.80
2023-05-02T09:50:06.330Z,12.23
2023-05-02T09:53:11.234Z,12.10
2023-05-02T09:56:15.269Z,11.87
2023-05-02T09:59:18.372Z,12.70
2023-05-02T10:02:21.864Z,11.90
2023-05-02T10:05:24.943Z,12.67
2023-05-02T10:08:28.586Z,14.00
2023-05-02T10:11:32.892Z,12.80
2023-05-02T10:14:41.264Z,13.00
2023-05-02T10:17:50.521Z,12.33
2023-05-02T10:20:57.860Z,13.90
2023-05-02T10:24:03.413Z,12.47
2023-05-02T10:27:07.625Z,13.17
2023-05-02T10:30:10.726Z,12.03
2023-05-02T10:33:14.871Z,12.45
2023-05-02T10:36:22.417Z,12.20
2023-05-02T10:39:25.200Z,13.50
2023-05-02T10:42:29.480Z,12.80
2023-05-02T10:45:33.173Z,11.57
2023-05-02T10:48:35.764Z,10.67
2023-05-02T10:51:39.512Z,12.93
2023-05-02T10:54:42.128Z,10.80
2023-05-02T10:58:23.467Z,11.32
2023-05-02T11:01:42.078Z,11.07
2023-05-02T11:05:01.933Z,10.53
2023-05-02T11:08:32.959Z,10.40
2023-05-02T11:11:43.166Z,9.73
2023-05-02T11:14:49.625Z,10.00
2023-05-02T11:18:01.892Z,10.40
2023-05-02T11:21:29.584Z,9.93
2023-05-02T11:24:39.449Z,9.30
2023-05-02T11:27:43.914Z,9.77
2023-05-02T11:30:48.726Z,9.93
2023-05-02T11:33:57.526Z,9.10
2023-05-02T11:37:00.267Z,10.27
2023-05-02T11:40:11.929Z,9.48
2023-05-02T11:43:15.700Z,9.57
2023-05-02T11:46:21.059Z,10.20
2023-05-02T11:49:23.921Z,8.90
2023-05-02T11:52:26.689Z,10.70
2023-05-02T11:55:29.416Z,9.80
2023-05-02T11:58:33.867Z,10.25
2023-05-02T12:01:38.192Z,10.80
2023-05-02T12:04:43.745Z,9.37
2023-05-02T12:07:49.168Z,9.47
2023-05-02T12:10:53.442Z,10.80
2023-05-02T12:13:56.056Z,10.27
2023-05-02T12:17:00.814Z,11.80
2023-05-02T12:20:05.211Z,10.90
2023-05-02T12:23:08.000Z,11.40
2023-05-02T12:26:21.320Z,11.77
2023-05-02T12:32:32.370Z,11.17
2023-05-02T12:35:36.098Z,12.20
2023-05-02T12:38:38.699Z,13.80
2023-05-02T12:41:43.770Z,12.57
2023-05-02T12:44:48.222Z,13.23
2023-05-02T12:47:52.200Z,13.60
2023-05-02T12:50:56.039Z,13.87
2023-05-02T12:53:58.670Z,12.97
2023-05-02T12:57:08.778Z,13.00
2023-05-02T13:00:13.143Z,12.13
2023-05-02T13:03:17.050Z,11.33
2023-05-02T13:06:19.848Z,12.73
2023-05-02T13:09:22.375Z,11.77
2023-05-02T13:12:24.910Z,11.05
2023-05-02T13:15:27.521Z,11.63
2023-05-02T13:18:31.578Z,11.30
2023-05-02T13:21:34.212Z,12.43
2023-05-02T13:24:36.741Z,11.90
2023-05-02T13:27:41.034Z,11.30
2023-05-02T13:30:43.650Z,11.57
2023-05-02T13:33:47.639Z,10.07
2023-05-02T13:36:50.208Z,9.27
2023-05-02T13:39:52.794Z,8.73
2023-05-02T13:42:55.316Z,9.65
2023-05-02T13:45:57.986Z,10.60
2023-05-02T13:49:02.454Z,8.93
2023-05-02T13:52:05.215Z,9.03
2023-05-02T13:55:08.412Z,8.57
2023-05-02T13:58:11.302Z,9.07
2023-05-02T14:01:13.959Z,7.85
2023-05-02T14:04:18.107Z,7.75
2023-05-02T14:07:20.791Z,9.03
2023-05-02T14:10:23.378Z,8.65
2023-05-02T14:13:26.268Z,7.70
2023-05-02T14:16:30.706Z,7.20
2023-05-02T14:19:34.793Z,8.20
2023-05-02T14:22:37.393Z,8.20
2023-05-02T14:25:40.098Z,7.43
2023-05-02T14:28:42.711Z,6.32
2023-05-02T14:31:46.064Z,6.35
2023-05-02T14:34:50.062Z,7.03
2023-05-02T14:37:52.542Z,6.30
2023-05-02T14:40:55.371Z,5.40
2023-05-02T14:43:58.083Z,5.47
2023-05-02T14:47:00.891Z,5.97
2023-05-02T14:50:06.307Z,6.13
2023-05-02T14:53:09.058Z,5.80
2023-05-02T14:56:17.136Z,6.32
2023-05-02T14:59:20.090Z,5.60
2023-05-02T15:05:26.678Z,4.33
2023-05-02T15:08:29.312Z,5.03
2023-05-02T15:11:31.893Z,6.45
2023-05-02T15:14:34.494Z,5.97
2023-05-02T15:17:36.999Z,5.13
2023-05-02T15:20:41.051Z,5.10
2023-05-02T15:23:43.975Z,4.70
2023-05-02T15:26:46.673Z,4.82
2023-05-02T15:29:49.257Z,6.07
2023-05-02T15:32:51.853Z,5.13
2023-05-02T15:35:57.680Z,6.18
2023-05-02T15:39:00.212Z,6.22
2023-05-02T15:42:03.757Z,5.50
2023-05-02T15:45:07.491Z,4.53
2023-05-02T15:48:10.306Z,3.92
2023-05-02T15:54:20.161Z,4.20
2023-05-02T15:57:23.045Z,4.80
2023-05-02T16:03:28.587Z,3.25
2023-05-02T16:06:33.380Z,3.55
2023-05-02T16:09:36.304Z,3.10
2023-05-02T16:12:38.982Z,2.80
2023-05-02T16:15:41.534Z,3.33
2023-05-02T16:18:44.426Z,2.33
2023-05-02T16:21:48.357Z,2.20
2023-05-02T16:24:50.909Z,3.20
2023-05-02T16:27:53.610Z,3.80
2023-05-02T16:30:56.406Z,1.90
2023-05-02T16:37:03.850Z,1.67
2023-05-02T16:40:08.088Z,1.80
2023-05-02T16:43:10.829Z,1.85
2023-05-02T16:46:13.465Z,1.90
2023-05-02T16:49:16.063Z,1.77
2023-05-02T16:52:19.955Z,1.63
2023-05-02T16:55:22.878Z,1.48
2023-05-02T16:58:25.648Z,1.38
2023-05-02T17:01:28.301Z,1.00
2023-05-02T17:04:30.839Z,1.52
2023-05-02T17:07:34.737Z,1.13
2023-05-02T17:10:37.307Z,1.07
2023-05-02T17:13:40.178Z,1.30
2023-05-02T17:16:42.701Z,1.42
2023-05-02T17:19:45.622Z,1.40
2023-05-02T17:22:49.416Z,1.50
2023-05-02T17:25:52.243Z,1.53
2023-05-02T17:28:54.698Z,1.83
2023-05-02T17:32:00.421Z,1.63
2023-05-02T17:35:03.085Z,1.80
2023-05-02T17:38:07.079Z,2.00
2023-05-02T17:41:09.656Z,2.07
2023-05-02T17:44:12.171Z,2.53
2023-05-02T17:47:14.791Z,2.08
2023-05-02T17:50:17.374Z,1.90
2023-05-02T17:53:21.305Z,1.75
2023-05-02T17:56:23.835Z,1.90
2023-05-02T17:59:27.345Z,2.78
2023-05-02T18:02:30.121Z,2.53
2023-05-02T18:05:38.326Z,2.83
2023-05-02T18:08:42.263Z,2.73
2023-05-02T18:11:44.894Z,2.63
2023-05-02T18:14:48.245Z,2.35
2023-05-02T18:20:53.293Z,2.10
2023-05-02T18:23:57.581Z,2.03
2023-05-02T18:27:00.140Z,2.33
2023-05-02T18:30:03.605Z,2.40
2023-05-02T18:36:09.595Z,2.33
2023-05-02T18:39:14.298Z,2.90
2023-05-02T18:42:16.866Z,3.13
2023-05-02T18:45:19.673Z,2.58
2023-05-02T18:48:22.549Z,3.40
2023-05-02T18:51:25.196Z,2.55
2023-05-02T18:54:29.264Z,2.80
2023-05-02T18:57:33.561Z,3.10
2023-05-02T19:00:37.209Z,3.30
2023-05-02T19:03:39.999Z,3.33
2023-05-02T19:06:42.777Z,3.00
2023-05-02T19:09:46.730Z,3.58
2023-05-02T19:12:49.298Z,3.67
2023-05-02T19:15:51.994Z,3.92
2023-05-02T19:18:55.846Z,3.88
2023-05-02T19:21:58.652Z,3.70
2023-05-02T19:25:06.587Z,3.78
2023-05-02T19:28:09.170Z,4.07
2023-05-02T19:31:12.192Z,3.75
2023-05-02T19:34:14.715Z,4.53
2023-05-02T19:37:17.255Z,3.50
2023-05-02T19:40:21.154Z,3.33
2023-05-02T19:43:26.315Z,3.47
2023-05-02T19:46:30.142Z,3.17
2023-05-02T19:49:32.853Z,4.10
2023-05-02T19:52:37.361Z,3.40
2023-05-02T19:55:41.509Z,3.40
2023-05-02T19:58:44.410Z,3.20
2023-05-02T20:01:47.425Z,3.50
2023-05-02T20:04:50.067Z,3.70
2023-05-02T20:07:52.832Z,3.78
2023-05-02T20:10:56.985Z,4.20
2023-05-02T20:13:59.796Z,3.73
2023-05-02T20:17:02.459Z,3.33
2023-05-02T20:20:08.107Z,2.97
2023-05-02T20:23:10.704Z,3.50
2023-05-02T20:26:16.344Z,2.80
2023-05-02T20:29:18.963Z,3.70
2023-05-02T20:32:21.625Z,3.15
2023-05-02T20:35:24.515Z,3.80
2023-05-02T20:38:27.039Z,3.13
2023-05-02T20:41:32.152Z,3.80
2023-05-02T20:44:34.856Z,3.60
2023-05-02T20:47:37.515Z,3.28
2023-05-02T20:50:40.102Z,3.47
2023-05-02T20:53:42.674Z,3.43
2023-05-02T20:56:46.596Z,3.83
2023-05-02T20:59:49.176Z,4.13
2023-05-02T21:02:52.197Z,3.70
2023-05-02T21:05:55.587Z,3.58
2023-05-02T21:08:58.447Z,3.92
2023-05-02T21:12:02.570Z,3.85
2023-05-02T21:15:05.989Z,3.93
2023-05-02T21:18:08.670Z,3.90
2023-05-02T21:21:11.186Z,4.05
2023-05-02T21:24:13.816Z,3.97
2023-05-02T21:27:17.688Z,3.75
2023-05-02T21:30:20.442Z,3.80
2023-05-02T21:33:22.976Z,4.32
2023-05-02T21:36:25.858Z,3.60
2023-05-02T21:39:28.396Z,4.00
2023-05-02T21:42:32.346Z,4.13
2023-05-02T21:45:34.832Z,3.87
2023-05-02T21:48:37.365Z,3.40
2023-05-02T21:51:40.642Z,3.60
2023-05-02T21:54:46.856Z,4.03
2023-05-02T21:57:50.832Z,3.70
2023-05-02T22:00:53.372Z,3.27
2023-05-02T22:03:56.529Z,3.30
2023-05-02T22:06:59.516Z,3.28
2023-05-02T22:10:02.401Z,3.65
2023-05-02T22:13:09.344Z,3.13
2023-05-02T22:16:12.110Z,3.40
2023-05-02T22:19:15.032Z,3.58
2023-05-02T22:22:17.588Z,3.50
2023-05-02T22:25:20.171Z,3.87
2023-05-02T22:28:24.008Z,3.27
2023-05-02T22:31:27.144Z,4.43
2023-05-02T22:34:29.696Z,3.78
2023-05-02T22:37:32.225Z,3.83
2023-05-02T22:40:34.804Z,4.03
2023-05-02T22:43:38.620Z,3.47
2023-05-02T22:46:41.305Z,4.33
2023-05-02T22:49:44.539Z,3.83
2023-05-02T22:52:49.149Z,3.78
2023-05-02T22:55:52.263Z,3.90
2023-05-02T22:58:56.204Z,3.70
2023-05-02T23:02:00.564Z,4.43
2023-05-02T23:05:04.087Z,4.13
2023-05-02T23:08:06.551Z,4.22
2023-05-02T23:11:09.029Z,3.50
2023-05-02T23:14:12.906Z,4.03
2023-05-02T23:17:15.469Z,3.77
2023-05-02T23:20:20.333Z,4.17
2023-05-02T23:23:22.815Z,3.47
2023-05-02T23:26:25.560Z,4.67
2023-05-02T23:29:29.429Z,3.60
2023-05-02T23:32:32.201Z,3.60
2023-05-02T23:35:34.969Z,3.53
2023-05-02T23:38:37.561Z,3.75
2023-05-02T23:41:40.288Z,3.40
2023-05-02T23:44:44.590Z,3.58
2023-05-02T23:47:47.460Z,3.60
2023-05-02T23:50:50.066Z,3.65
2023-05-02T23:53:52.553Z,4.17
2023-05-02T23:56:56.023Z,3.87
2023-05-02T23:59:59.938Z,5.32
